Time;durP1;ratioP1;P1;durP2;ratioP2;P2;SDS_P1;SDS_P2;PMS_P1;PMS_P2;Temp;Humidity;BMP_temperature;BMP_pressure;BME280_temperature;BME280_humidity;BME280_pressure;Samples;Min_cycle;Max_cycle;Signal;HPM_P1;HPM_P2
2023/07/02 00:02:09;;;;;;;11.10;9.30;;;;;;;;;;4992178;28;20034;-80
2023/07/02 00:04:35;;;;;;;8.57;7.78;;;;;;;;;;4976617;28;20026;-79
2023/07/02 00:07:04;;;;;;;9.32;8.48;;;;;;;;;;4993544;28;20078;-79
2023/07/02 00:09:30;;;;;;;9.63;8.65;;;;;;;;;;4992530;28;20057;-78
2023/07/02 00:11:56;;;;;;;9.05;8.13;;;;;;;;;;4993375;28;20497;-78
2023/07/02 00:14:22;;;;;;;8.90;8.13;;;;;;;;;;4993728;28;20035;-78
2023/07/02 00:16:48;;;;;;;9.30;8.50;;;;;;;;;;4993794;28;20619;-78
2023/07/02 00:19:14;;;;;;;8.93;8.25;;;;;;;;;;4992413;28;20260;-77
2023/07/02 00:21:41;;;;;;;15.50;8.23;;;;;;;;;;4992211;28;20045;-79
2023/07/02 00:24:09;;;;;;;9.35;7.13;;;;;;;;;;4993335;28;20104;-79
2023/07/02 00:26:35;;;;;;;9.05;8.25;;;;;;;;;;4998052;28;20413;-79
2023/07/02 00:29:03;;;;;;;9.02;8.18;;;;;;;;;;4997887;28;20046;-78
2023/07/02 00:31:29;;;;;;;8.48;7.80;;;;;;;;;;4999572;28;20038;-79
2023/07/02 00:33:55;;;;;;;8.57;7.82;;;;;;;;;;4999808;28;20038;-77
2023/07/02 00:36:22;;;;;;;10.27;8.18;;;;;;;;;;5000950;28;20033;-78
2023/07/02 00:38:48;;;;;;;8.80;7.95;;;;;;;;;;4997274;28;20046;-79
2023/07/02 00:41:14;;;;;;;9.07;8.25;;;;;;;;;;4999044;28;20049;-78
2023/07/02 00:43:43;;;;;;;8.45;7.65;;;;;;;;;;4999051;28;20034;-78
2023/07/02 00:46:17;;;;;;;8.73;7.93;;;;;;;;;;4998857;28;20045;-79
2023/07/02 00:48:45;;;;;;;8.48;7.68;;;;;;;;;;4998532;28;20090;-79
2023/07/02 00:51:15;;;;;;;8.93;8.23;;;;;;;;;;4998287;28;20080;-77
2023/07/02 00:53:41;;;;;;;23.50;8.38;;;;;;;;;;4995622;28;20042;-79
2023/07/02 00:56:07;;;;;;;13.85;7.93;;;;;;;;;;4995552;28;20121;-79
2023/07/02 00:58:34;;;;;;;9.40;7.57;;;;;;;;;;4991999;28;20049;-78
2023/07/02 01:01:00;;;;;;;8.90;8.07;;;;;;;;;;4975392;28;20026;-79
2023/07/02 01:03:27;;;;;;;9.50;8.48;;;;;;;;;;4994022;28;20038;-78
2023/07/02 01:05:53;;;;;;;9.30;7.78;;;;;;;;;;4993253;28;20109;-78
2023/07/02 01:08:19;;;;;;;10.93;8.23;;;;;;;;;;4993624;28;20170;-79
2023/07/02 01:10:45;;;;;;;8.75;7.72;;;;;;;;;;4991854;28;20170;-78
2023/07/02 01:13:15;;;;;;;9.70;8.88;;;;;;;;;;4992229;28;20038;-78
2023/07/02 01:15:40;;;;;;;14.50;8.40;;;;;;;;;;4992619;28;20045;-78
2023/07/02 01:18:07;;;;;;;9.35;8.45;;;;;;;;;;4990922;28;20034;-79
2023/07/02 01:20:33;;;;;;;10.05;8.75;;;;;;;;;;4991247;28;20412;-78
2023/07/02 01:23:02;;;;;;;8.82;7.93;;;;;;;;;;4990586;28;20050;-77
2023/07/02 01:25:29;;;;;;;12.85;8.63;;;;;;;;;;4991272;28;20125;-78
2023/07/02 01:27:58;;;;;;;13.02;7.28;;;;;;;;;;4990823;28;20057;-77
2023/07/02 01:30:25;;;;;;;9.77;8.90;;;;;;;;;;4991175;28;20031;-79
2023/07/02 01:32:52;;;;;;;8.27;7.43;;;;;;;;;;4992719;28;20046;-78
2023/07/02 01:35:18;;;;;;;10.30;7.82;;;;;;;;;;4992268;28;20397;-77
2023/07/02 01:37:44;;;;;;;8.45;7.85;;;;;;;;;;4993744;28;20050;-78
2023/07/02 01:40:10;;;;;;;8.35;7.60;;;;;;;;;;4996049;28;20115;-78
2023/07/02 01:42:37;;;;;;;9.07;8.10;;;;;;;;;;5003908;28;20120;-78
2023/07/02 01:45:03;;;;;;;8.57;7.75;;;;;;;;;;4997944;28;20038;-77
2023/07/02 01:47:32;;;;;;;8.38;7.68;;;;;;;;;;4992588;28;20061;-78
2023/07/02 01:49:58;;;;;;;8.20;7.35;;;;;;;;;;4991799;28;20038;-79
2023/07/02 01:52:25;;;;;;;10.88;7.88;;;;;;;;;;4992692;28;20050;-79
2023/07/02 01:54:52;;;;;;;7.47;6.82;;;;;;;;;;4991034;28;20319;-78
2023/07/02 01:57:19;;;;;;;10.27;6.82;;;;;;;;;;4991848;28;20038;-78
2023/07/02 01:59:45;;;;;;;8.10;7.35;;;;;;;;;;4994003;28;20536;-78
2023/07/02 02:02:12;;;;;;;7.78;7.03;;;;;;;;;;4995664;28;20556;-79
2023/07/02 02:04:38;;;;;;;7.18;6.47;;;;;;;;;;4997103;28;20117;-77
2023/07/02 02:07:04;;;;;;;7.15;6.65;;;;;;;;;;4995246;28;20100;-77
2023/07/02 02:09:32;;;;;;;7.10;6.50;;;;;;;;;;4996852;28;20472;-77
2023/07/02 02:11:58;;;;;;;7.53;6.68;;;;;;;;;;4996061;28;20042;-79
2023/07/02 02:14:25;;;;;;;8.18;6.78;;;;;;;;;;4995661;28;20057;-77
2023/07/02 02:16:52;;;;;;;8.68;6.95;;;;;;;;;;4996221;28;20124;-78
2023/07/02 02:19:18;;;;;;;7.43;6.75;;;;;;;;;;4994127;28;20356;-77
2023/07/02 02:21:44;;;;;;;7.15;6.63;;;;;;;;;;4994546;28;20227;-78
2023/07/02 02:24:10;;;;;;;7.32;6.07;;;;;;;;;;4994297;28;20046;-78
2023/07/02 02:26:36;;;;;;;7.20;6.60;;;;;;;;;;4992069;28;20046;-77
2023/07/02 02:29:03;;;;;;;7.15;6.45;;;;;;;;;;4990979;28;20503;-78
2023/07/02 02:31:30;;;;;;;7.10;6.40;;;;;;;;;;4991309;28;20045;-78
2023/07/02 02:33:57;;;;;;;8.68;6.47;;;;;;;;;;4990982;28;20072;-79
2023/07/02 02:36:23;;;;;;;6.80;6.20;;;;;;;;;;4989706;28;20497;-78
2023/07/02 02:38:49;;;;;;;6.72;6.13;;;;;;;;;;4989888;28;20034;-78
2023/07/02 02:41:16;;;;;;;12.10;5.80;;;;;;;;;;4989536;28;20189;-78
2023/07/02 02:43:47;;;;;;;6.97;6.40;;;;;;;;;;4989748;28;20069;-77
2023/07/02 02:46:19;;;;;;;6.97;5.97;;;;;;;;;;4989307;28;20038;-78
2023/07/02 02:48:45;;;;;;;6.13;5.53;;;;;;;;;;4989626;28;20042;-77
2023/07/02 02:51:11;;;;;;;8.05;5.85;;;;;;;;;;4989286;28;20058;-79
2023/07/02 02:53:38;;;;;;;7.10;6.50;;;;;;;;;;4989711;28;20061;-78
2023/07/02 02:56:04;;;;;;;6.90;6.30;;;;;;;;;;4989476;28;20201;-78
2023/07/02 02:58:30;;;;;;;5.97;5.55;;;;;;;;;;4989721;28;20089;-78
2023/07/02 03:00:56;;;;;;;6.20;5.80;;;;;;;;;;4990929;28;20035;-77
2023/07/02 03:03:24;;;;;;;6.28;5.63;;;;;;;;;;4994132;28;20058;-78
2023/07/02 03:05:52;;;;;;;8.38;5.43;;;;;;;;;;4993963;28;20042;-77
2023/07/02 03:08:18;;;;;;;6.53;5.63;;;;;;;;;;4995152;28;20048;-76
2023/07/02 03:10:44;;;;;;;5.68;5.03;;;;;;;;;;4994935;28;20034;-77
2023/07/02 03:13:11;;;;;;;8.50;5.60;;;;;;;;;;4993207;28;20532;-77
2023/07/02 03:15:36;;;;;;;5.60;5.15;;;;;;;;;;4994666;28;20033;-78
2023/07/02 03:18:02;;;;;;;5.70;5.10;;;;;;;;;;4992949;28;20053;-76
2023/07/02 03:20:29;;;;;;;6.03;5.53;;;;;;;;;;4993261;28;20034;-77
2023/07/02 03:22:55;;;;;;;5.20;4.70;;;;;;;;;;4994331;28;20413;-76
2023/07/02 03:25:20;;;;;;;6.32;5.68;;;;;;;;;;4994414;28;20045;-77
2023/07/02 03:27:47;;;;;;;7.57;5.60;;;;;;;;;;4993271;28;20465;-77
2023/07/02 03:30:13;;;;;;;6.95;5.35;;;;;;;;;;4999352;28;20034;-76
2023/07/02 03:32:39;;;;;;;5.80;5.20;;;;;;;;;;4995073;28;20532;-78
2023/07/02 03:35:05;;;;;;;7.53;5.65;;;;;;;;;;4994178;28;20034;-78
2023/07/02 03:37:32;;;;;;;6.07;5.53;;;;;;;;;;4994163;28;20037;-78
2023/07/02 03:39:58;;;;;;;6.10;5.60;;;;;;;;;;4993004;28;20600;-77
2023/07/02 03:42:25;;;;;;;6.88;6.28;;;;;;;;;;4993788;28;20042;-79
2023/07/02 03:44:51;;;;;;;6.47;5.70;;;;;;;;;;4992813;28;20042;-77
2023/07/02 03:47:19;;;;;;;5.47;5.07;;;;;;;;;;4993721;28;20050;-78
2023/07/02 03:49:46;;;;;;;5.82;5.43;;;;;;;;;;4994008;28;20042;-77
2023/07/02 03:52:12;;;;;;;6.78;5.78;;;;;;;;;;4993425;28;20061;-79
2023/07/02 03:54:38;;;;;;;7.13;5.07;;;;;;;;;;4976514;28;20034;-79
2023/07/02 03:57:04;;;;;;;5.57;5.22;;;;;;;;;;4993703;28;20245;-79
2023/07/02 03:59:30;;;;;;;4.55;4.25;;;;;;;;;;4993652;28;20042;-78
2023/07/02 04:01:56;;;;;;;5.88;4.72;;;;;;;;;;4993712;28;20027;-78
2023/07/02 04:04:22;;;;;;;8.02;5.13;;;;;;;;;;4993420;28;20049;-79
2023/07/02 04:06:48;;;;;;;5.40;5.00;;;;;;;;;;4993770;28;20184;-79
2023/07/02 04:09:14;;;;;;;5.63;5.22;;;;;;;;;;4993210;28;20238;-76
2023/07/02 04:11:40;;;;;;;4.72;4.43;;;;;;;;;;4993652;28;20090;-79
2023/07/02 04:14:06;;;;;;;5.20;4.80;;;;;;;;;;4992959;28;20401;-78
2023/07/02 04:16:32;;;;;;;5.15;4.78;;;;;;;;;;4993551;28;20409;-78
2023/07/02 04:18:58;;;;;;;5.13;4.60;;;;;;;;;;4993386;28;20046;-79
2023/07/02 04:21:25;;;;;;;6.00;5.38;;;;;;;;;;4993329;28;20034;-78
2023/07/02 04:23:51;;;;;;;4.50;4.10;;;;;;;;;;4976743;28;20042;-78
2023/07/02 04:26:17;;;;;;;5.70;5.20;;;;;;;;;;4991863;28;20058;-78
2023/07/02 04:28:43;;;;;;;5.35;4.85;;;;;;;;;;4992032;28;20136;-79
2023/07/02 04:31:09;;;;;;;5.97;5.20;;;;;;;;;;4992010;28;20026;-79
2023/07/02 04:33:35;;;;;;;5.00;4.70;;;;;;;;;;4993252;28;20113;-77
2023/07/02 04:36:02;;;;;;;5.65;4.72;;;;;;;;;;4993106;28;20038;-79
2023/07/02 04:38:28;;;;;;;5.57;5.07;;;;;;;;;;4992785;28;20047;-78
2023/07/02 04:41:01;;;;;;;5.40;4.95;;;;;;;;;;4993851;28;20037;-77
2023/07/02 04:43:29;;;;;;;5.63;5.22;;;;;;;;;;4996676;28;20125;-78
2023/07/02 04:45:55;;;;;;;5.55;5.05;;;;;;;;;;4992694;28;20058;-79
2023/07/02 04:48:21;;;;;;;5.35;4.90;;;;;;;;;;4993937;28;20047;-81
2023/07/02 04:50:47;;;;;;;5.25;4.85;;;;;;;;;;5003484;28;20149;-80
2023/07/02 04:53:13;;;;;;;4.50;4.10;;;;;;;;;;4999280;28;20061;-81
2023/07/02 04:55:39;;;;;;;5.68;5.00;;;;;;;;;;4994795;28;20030;-81
2023/07/02 04:58:06;;;;;;;5.38;4.75;;;;;;;;;;4992894;28;20034;-81
2023/07/02 05:00:31;;;;;;;5.32;4.93;;;;;;;;;;4994041;28;20027;-81
2023/07/02 05:02:57;;;;;;;4.95;4.55;;;;;;;;;;4992807;28;20065;-78
2023/07/02 05:05:23;;;;;;;5.45;4.25;;;;;;;;;;4992447;28;20092;-80
2023/07/02 05:07:49;;;;;;;7.72;6.93;;;;;;;;;;4992509;28;20479;-79
2023/07/02 05:10:15;;;;;;;6.45;5.80;;;;;;;;;;4992396;28;20607;-81
2023/07/02 05:12:41;;;;;;;5.18;4.68;;;;;;;;;;4991271;28;20125;-81
2023/07/02 05:15:07;;;;;;;5.78;5.03;;;;;;;;;;4991647;28;20069;-80
2023/07/02 05:17:34;;;;;;;4.97;4.65;;;;;;;;;;4993997;28;20108;-81
2023/07/02 05:20:01;;;;;;;6.30;5.72;;;;;;;;;;4994083;28;20061;-79
2023/07/02 05:22:27;;;;;;;6.15;5.55;;;;;;;;;;4992807;28;20030;-79
2023/07/02 05:24:52;;;;;;;5.45;5.05;;;;;;;;;;4992209;28;20065;-82
2023/07/02 05:27:19;;;;;;;6.80;4.47;;;;;;;;;;4990827;28;20049;-79
2023/07/02 05:29:45;;;;;;;4.68;4.35;;;;;;;;;;4992368;28;20125;-80
2023/07/02 05:32:11;;;;;;;4.80;4.28;;;;;;;;;;4992136;28;20582;-79
2023/07/02 05:34:36;;;;;;;5.13;4.63;;;;;;;;;;4974996;28;20092;-81
2023/07/02 05:37:03;;;;;;;5.25;4.85;;;;;;;;;;4993424;28;20476;-83
2023/07/02 05:39:29;;;;;;;5.35;4.85;;;;;;;;;;4992635;28;20030;-81
2023/07/02 05:41:56;;;;;;;5.15;4.60;;;;;;;;;;4991676;28;20096;-81
2023/07/02 05:44:22;;;;;;;4.40;4.10;;;;;;;;;;4992068;28;20065;-81
2023/07/02 05:46:48;;;;;;;4.78;4.13;;;;;;;;;;4991007;28;20050;-80
2023/07/02 05:49:14;;;;;;;6.75;4.72;;;;;;;;;;4991775;28;20080;-81
2023/07/02 05:51:40;;;;;;;5.53;4.93;;;;;;;;;;4992119;28;20054;-80
2023/07/02 05:54:06;;;;;;;7.05;4.57;;;;;;;;;;4992048;28;20045;-81
2023/07/02 05:56:32;;;;;;;5.38;4.93;;;;;;;;;;4991847;28;20037;-81
2023/07/02 05:58:58;;;;;;;8.20;4.35;;;;;;;;;;4991800;28;20044;-80
2023/07/02 06:01:25;;;;;;;5.38;4.75;;;;;;;;;;4991837;28;20118;-81
2023/07/02 06:03:51;;;;;;;5.00;4.60;;;;;;;;;;4992087;28;20050;-81
2023/07/02 06:06:17;;;;;;;5.43;4.88;;;;;;;;;;4991778;28;20030;-81
2023/07/02 06:08:44;;;;;;;5.15;4.38;;;;;;;;;;4991045;28;20054;-81
2023/07/02 06:11:10;;;;;;;5.05;4.53;;;;;;;;;;4992302;28;20125;-80
2023/07/02 06:13:36;;;;;;;6.30;4.82;;;;;;;;;;4991773;28;20052;-81
2023/07/02 06:16:03;;;;;;;9.20;4.55;;;;;;;;;;4991087;28;20134;-81
2023/07/02 06:18:29;;;;;;;7.15;4.78;;;;;;;;;;4990534;28;20034;-81
2023/07/02 06:20:55;;;;;;;4.53;4.18;;;;;;;;;;4992171;28;20065;-81
2023/07/02 06:23:22;;;;;;;3.67;3.45;;;;;;;;;;4974932;28;20030;-81
2023/07/02 06:25:48;;;;;;;5.57;4.10;;;;;;;;;;4975654;28;20038;-80
2023/07/02 06:28:14;;;;;;;4.50;4.10;;;;;;;;;;4991003;28;20088;-81
2023/07/02 06:30:40;;;;;;;7.60;3.90;;;;;;;;;;4992091;28;20046;-82
2023/07/02 06:33:06;;;;;;;4.85;4.07;;;;;;;;;;4990063;28;20391;-80
2023/07/02 06:35:32;;;;;;;6.75;4.30;;;;;;;;;;4990902;28;20096;-81
2023/07/02 06:37:58;;;;;;;9.65;4.80;;;;;;;;;;4989659;28;20042;-81
2023/07/02 06:40:24;;;;;;;4.38;3.97;;;;;;;;;;4990957;28;20130;-81
2023/07/02 06:42:50;;;;;;;6.18;4.88;;;;;;;;;;4991359;28;20034;-79
2023/07/02 06:45:16;;;;;;;4.45;4.03;;;;;;;;;;4973590;28;20026;-79
2023/07/02 06:47:42;;;;;;;4.78;4.45;;;;;;;;;;4973979;28;20459;-81
2023/07/02 06:50:08;;;;;;;8.07;4.60;;;;;;;;;;4990452;28;20046;-82
2023/07/02 06:52:34;;;;;;;5.38;4.50;;;;;;;;;;4976146;28;20112;-83
2023/07/02 06:55:00;;;;;;;6.72;4.70;;;;;;;;;;4995600;28;20252;-82
2023/07/02 06:57:27;;;;;;;7.07;4.63;;;;;;;;;;4996178;28;20042;-83
2023/07/02 06:59:58;;;;;;;4.45;4.05;;;;;;;;;;4984956;28;20034;-84
2023/07/02 07:02:25;;;;;;;8.82;4.38;;;;;;;;;;5003833;28;20084;-82
2023/07/02 07:04:51;;;;;;;6.22;4.95;;;;;;;;;;5006082;28;20050;-85
2023/07/02 07:07:18;;;;;;;6.72;4.65;;;;;;;;;;5009766;28;20042;-83
2023/07/02 07:09:44;;;;;;;5.07;3.65;;;;;;;;;;5011277;28;20053;-85
2023/07/02 07:12:11;;;;;;;4.53;4.22;;;;;;;;;;5013591;28;20029;-87
2023/07/02 07:14:36;;;;;;;4.10;3.80;;;;;;;;;;4997526;28;20057;-85
2023/07/02 07:17:03;;;;;;;8.38;5.40;;;;;;;;;;5008774;28;20039;-83
2023/07/02 07:19:29;;;;;;;5.90;5.30;;;;;;;;;;5005026;28;20125;-84
2023/07/02 07:21:55;;;;;;;9.80;5.15;;;;;;;;;;5001087;28;20042;-83
2023/07/02 07:24:21;;;;;;;4.72;4.30;;;;;;;;;;5002288;28;20584;-84
2023/07/02 07:26:47;;;;;;;6.68;4.93;;;;;;;;;;5004886;28;20066;-83
2023/07/02 07:29:13;;;;;;;9.88;4.55;;;;;;;;;;5005397;28;20460;-83
2023/07/02 07:31:39;;;;;;;5.65;4.47;;;;;;;;;;5005041;28;20033;-83
2023/07/02 07:34:05;;;;;;;3.97;3.67;;;;;;;;;;4989270;28;20045;-85
2023/07/02 07:36:31;;;;;;;5.72;4.20;;;;;;;;;;5005784;28;20035;-84
2023/07/02 07:38:57;;;;;;;10.15;5.38;;;;;;;;;;5008190;28;20052;-84
2023/07/02 07:41:23;;;;;;;6.20;4.55;;;;;;;;;;5009848;28;20038;-85
2023/07/02 07:43:49;;;;;;;5.60;4.20;;;;;;;;;;5007976;28;20038;-84
2023/07/02 07:46:15;;;;;;;5.90;4.43;;;;;;;;;;5010306;28;20574;-82
2023/07/02 07:48:41;;;;;;;7.45;4.43;;;;;;;;;;5007091;28;20061;-85
2023/07/02 07:51:07;;;;;;;8.23;4.43;;;;;;;;;;5011280;28;20046;-85
2023/07/02 07:53:33;;;;;;;4.68;4.28;;;;;;;;;;5010971;28;20046;-84
2023/07/02 07:55:59;;;;;;;3.47;3.25;;;;;;;;;;5014216;28;20030;-85
2023/07/02 07:58:25;;;;;;;9.07;4.78;;;;;;;;;;5014690;28;20044;-85
2023/07/02 08:00:51;;;;;;;4.25;3.85;;;;;;;;;;5014502;28;20030;-85
2023/07/02 08:03:18;;;;;;;10.75;5.35;;;;;;;;;;5009950;28;20580;-84
2023/07/02 08:05:44;;;;;;;4.45;4.05;;;;;;;;;;5010607;28;20034;-84
2023/07/02 08:08:10;;;;;;;6.30;4.18;;;;;;;;;;5008106;28;20140;-85
2023/07/02 08:10:36;;;;;;;5.22;4.20;;;;;;;;;;5007819;28;20034;-81
2023/07/02 08:13:02;;;;;;;5.22;3.95;;;;;;;;;;4992172;28;20034;-81
2023/07/02 08:15:28;;;;;;;4.63;4.03;;;;;;;;;;4993489;28;20077;-82
2023/07/02 08:17:57;;;;;;;4.90;4.50;;;;;;;;;;4992709;28;20173;-81
2023/07/02 08:20:23;;;;;;;9.82;3.97;;;;;;;;;;4993383;28;20412;-81
2023/07/02 08:22:51;;;;;;;4.93;3.97;;;;;;;;;;4976406;28;20056;-81
2023/07/02 08:25:17;;;;;;;6.03;4.05;;;;;;;;;;4992044;28;20037;-81
2023/07/02 08:27:44;;;;;;;5.03;4.63;;;;;;;;;;4993776;28;20599;-81
2023/07/02 08:30:10;;;;;;;6.03;4.72;;;;;;;;;;4994102;28;20412;-83
2023/07/02 08:32:36;;;;;;;5.47;4.10;;;;;;;;;;4994346;28;20030;-80
2023/07/02 08:35:03;;;;;;;4.25;3.95;;;;;;;;;;4993845;28;20034;-82
2023/07/02 08:37:30;;;;;;;4.03;3.67;;;;;;;;;;4992666;28;20092;-82
2023/07/02 08:39:56;;;;;;;5.88;4.20;;;;;;;;;;4992727;28;20030;-81
2023/07/02 08:42:22;;;;;;;4.80;4.40;;;;;;;;;;4993857;28;20417;-81
2023/07/02 08:44:53;;;;;;;4.55;4.07;;;;;;;;;;4977492;28;20069;-83
2023/07/02 08:47:18;;;;;;;4.10;3.70;;;;;;;;;;4992704;28;20042;-81
2023/07/02 08:49:44;;;;;;;4.40;3.97;;;;;;;;;;4992790;28;20046;-82
2023/07/02 08:52:10;;;;;;;4.40;4.05;;;;;;;;;;4997552;28;20515;-83
2023/07/02 08:54:37;;;;;;;7.43;3.17;;;;;;;;;;4999870;28;20045;-82
2023/07/02 08:57:05;;;;;;;4.55;4.00;;;;;;;;;;4995858;28;20069;-82
2023/07/02 08:59:31;;;;;;;4.68;3.58;;;;;;;;;;4991722;28;20034;-82
2023/07/02 09:01:57;;;;;;;4.22;3.85;;;;;;;;;;4993382;28;20038;-80
2023/07/02 09:04:24;;;;;;;4.20;3.90;;;;;;;;;;4994184;28;20080;-83
2023/07/02 09:07:09;;;;;;;4.32;3.92;;;;;;;;;;4993082;28;20402;-82
2023/07/02 09:09:48;;;;;;;4.00;3.60;;;;;;;;;;4992960;28;20030;-82
2023/07/02 09:12:27;;;;;;;5.43;3.90;;;;;;;;;;4993981;28;20038;-82
2023/07/02 09:15:00;;;;;;;5.03;4.22;;;;;;;;;;4992680;28;20483;-82
2023/07/02 09:17:30;;;;;;;4.63;4.22;;;;;;;;;;4994720;28;20063;-83
2023/07/02 09:19:56;;;;;;;;;;;;;;;;;;4993691;28;20516;-83
2023/07/02 09:22:22;;;;;;;7.10;4.68;;;;;;;;;;4994664;28;19955;-82
2023/07/02 09:24:53;;;;;;;4.90;4.50;;;;;;;;;;4994312;28;20456;-82
2023/07/02 09:27:19;;;;;;;4.07;3.53;;;;;;;;;;4994020;28;20644;-80
2023/07/02 09:29:49;;;;;;;6.72;4.95;;;;;;;;;;4993541;28;20085;-84
2023/07/02 09:32:23;;;;;;;5.32;4.82;;;;;;;;;;4995987;28;20045;-83
2023/07/02 09:34:49;;;;;;;6.20;5.25;;;;;;;;;;4993291;28;20058;-83
2023/07/02 09:37:15;;;;;;;5.32;4.80;;;;;;;;;;4992035;28;20086;-83
2023/07/02 09:39:41;;;;;;;6.93;4.88;;;;;;;;;;4991624;28;20457;-79
2023/07/02 09:42:09;;;;;;;6.78;4.57;;;;;;;;;;4993118;28;20121;-81
2023/07/02 09:44:35;;;;;;;9.15;5.15;;;;;;;;;;4991754;28;20034;-82
2023/07/02 09:47:03;;;;;;;5.60;5.00;;;;;;;;;;4991849;28;20073;-83
2023/07/02 09:49:38;;;;;;;6.05;5.00;;;;;;;;;;4991637;28;20052;-83
2023/07/02 09:52:05;;;;;;;4.70;3.67;;;;;;;;;;4991793;28;20050;-82
2023/07/02 09:54:31;;;;;;;5.68;4.75;;;;;;;;;;4992544;28;20034;-81
2023/07/02 09:57:00;;;;;;;9.93;4.50;;;;;;;;;;4992352;28;20216;-83
2023/07/02 09:59:27;;;;;;;5.38;4.07;;;;;;;;;;4992860;28;20039;-81
2023/07/02 10:01:53;;;;;;;5.43;3.90;;;;;;;;;;4993807;28;20104;-83
2023/07/02 10:04:19;;;;;;;9.82;4.18;;;;;;;;;;4994066;28;20560;-83
2023/07/02 10:06:50;;;;;;;5.63;4.30;;;;;;;;;;4993070;28;20034;-83
2023/07/02 10:09:16;;;;;;;4.60;3.15;;;;;;;;;;4992433;28;20038;-82
2023/07/02 10:11:42;;;;;;;4.72;4.20;;;;;;;;;;4992161;28;20038;-83
2023/07/02 10:14:08;;;;;;;4.65;4.22;;;;;;;;;;4992387;28;20106;-82
2023/07/02 10:16:34;;;;;;;6.15;3.97;;;;;;;;;;4992075;28;20026;-81
2023/07/02 10:19:10;;;;;;;3.97;3.33;;;;;;;;;;4992291;28;20074;-82
2023/07/02 10:21:35;;;;;;;3.53;3.22;;;;;;;;;;4990954;28;20094;-81
2023/07/02 10:24:09;;;;;;;5.97;4.60;;;;;;;;;;4991872;28;20057;-82
2023/07/02 10:26:35;;;;;;;5.53;4.18;;;;;;;;;;4992682;28;20513;-82
2023/07/02 10:29:02;;;;;;;5.30;4.60;;;;;;;;;;4990826;28;20053;-82
2023/07/02 10:31:28;;;;;;;5.55;4.55;;;;;;;;;;4991995;28;20042;-82
2023/07/02 10:33:54;;;;;;;18.45;4.88;;;;;;;;;;4992122;28;20429;-81
2023/07/02 10:36:20;;;;;;;8.23;4.75;;;;;;;;;;4992181;28;20502;-82
2023/07/02 10:38:47;;;;;;;7.95;4.40;;;;;;;;;;4993271;28;20599;-81
2023/07/02 10:41:22;;;;;;;3.28;3.08;;;;;;;;;;5001103;28;20125;-82
2023/07/02 10:43:48;;;;;;;4.55;4.15;;;;;;;;;;4992516;28;20047;-83
2023/07/02 10:46:20;;;;;;;5.15;3.53;;;;;;;;;;4993191;28;20069;-81
2023/07/02 10:48:53;;;;;;;4.28;3.97;;;;;;;;;;4991387;28;20054;-82
2023/07/02 10:51:21;;;;;;;7.05;4.80;;;;;;;;;;4991873;28;20050;-81
2023/07/02 10:53:58;;;;;;;6.28;4.90;;;;;;;;;;4992006;28;20092;-81
2023/07/02 10:56:26;;;;;;;4.85;4.00;;;;;;;;;;4992661;28;20027;-82
2023/07/02 10:58:52;;;;;;;4.30;3.80;;;;;;;;;;4995337;28;20034;-82
2023/07/02 11:01:28;;;;;;;7.43;4.30;;;;;;;;;;5003709;28;20046;-81
2023/07/02 11:03:57;;;;;;;4.97;3.50;;;;;;;;;;4998484;28;20041;-82
2023/07/02 11:06:23;;;;;;;6.18;3.70;;;;;;;;;;4993320;28;20042;-83
2023/07/02 11:08:49;;;;;;;4.95;3.80;;;;;;;;;;4991572;28;20107;-82
2023/07/02 11:11:15;;;;;;;4.10;3.75;;;;;;;;;;4992602;28;20030;-82
2023/07/02 11:13:47;;;;;;;7.65;3.90;;;;;;;;;;4991843;28;20034;-81
2023/07/02 11:16:20;;;;;;;4.85;3.47;;;;;;;;;;4992559;28;20038;-81
2023/07/02 11:18:46;;;;;;;5.63;4.07;;;;;;;;;;4959101;28;20417;-82
2023/07/02 11:21:12;;;;;;;6.82;3.53;;;;;;;;;;4992027;28;20500;-80
2023/07/02 11:23:38;;;;;;;8.30;3.72;;;;;;;;;;4993501;28;20096;-82
2023/07/02 11:26:04;;;;;;;4.20;3.67;;;;;;;;;;4994909;28;20038;-81
2023/07/02 11:28:31;;;;;;;4.93;3.47;;;;;;;;;;4995548;28;20061;-83
2023/07/02 11:30:57;;;;;;;5.85;3.40;;;;;;;;;;4994132;28;20034;-79
2023/07/02 11:33:33;;;;;;;5.38;3.92;;;;;;;;;;4993765;28;20523;-82
2023/07/02 11:35:59;;;;;;;6.47;4.22;;;;;;;;;;4994046;28;20046;-81
2023/07/02 11:38:25;;;;;;;3.90;3.63;;;;;;;;;;4995015;28;20045;-80
2023/07/02 11:40:51;;;;;;;4.75;4.00;;;;;;;;;;4995726;28;20575;-82
2023/07/02 11:43:17;;;;;;;6.43;4.03;;;;;;;;;;4994945;28;20100;-81
2023/07/02 11:45:43;;;;;;;4.55;4.15;;;;;;;;;;4993780;28;20031;-83
2023/07/02 11:48:09;;;;;;;6.03;3.75;;;;;;;;;;4996309;28;20517;-82
2023/07/02 11:50:35;;;;;;;9.52;4.35;;;;;;;;;;4994220;28;20054;-81
2023/07/02 11:53:01;;;;;;;9.10;4.28;;;;;;;;;;4994159;28;20520;-83
2023/07/02 11:55:27;;;;;;;4.70;4.20;;;;;;;;;;4995639;28;20125;-82
2023/07/02 11:57:53;;;;;;;8.18;3.72;;;;;;;;;;4994556;28;20958;-83
2023/07/02 12:00:19;;;;;;;3.85;3.33;;;;;;;;;;4996407;28;20394;-81
2023/07/02 12:02:45;;;;;;;3.53;3.22;;;;;;;;;;4994391;28;20181;-82
2023/07/02 12:05:11;;;;;;;5.30;4.35;;;;;;;;;;4995350;28;20505;-83
2023/07/02 12:07:37;;;;;;;7.40;4.32;;;;;;;;;;4994557;28;20042;-82
2023/07/02 12:10:03;;;;;;;3.40;3.10;;;;;;;;;;4994918;28;20037;-82
2023/07/02 12:12:29;;;;;;;5.15;3.88;;;;;;;;;;4994504;28;20068;-82
2023/07/02 12:14:55;;;;;;;3.33;3.08;;;;;;;;;;4993400;28;20509;-82
2023/07/02 12:17:21;;;;;;;3.33;3.03;;;;;;;;;;4995175;28;20038;-82
2023/07/02 12:19:47;;;;;;;6.40;3.38;;;;;;;;;;4995071;28;20049;-82
2023/07/02 12:22:16;;;;;;;4.97;3.97;;;;;;;;;;4995854;28;20034;-81
2023/07/02 12:24:42;;;;;;;10.85;3.42;;;;;;;;;;4994924;28;20038;-83
2023/07/02 12:27:08;;;;;;;3.30;3.00;;;;;;;;;;5003925;28;20046;-83
2023/07/02 12:29:35;;;;;;;4.28;3.83;;;;;;;;;;4996648;28;20129;-82
2023/07/02 12:32:01;;;;;;;4.80;4.40;;;;;;;;;;4994708;28;20053;-79
2023/07/02 12:34:29;;;;;;;4.45;4.10;;;;;;;;;;4992402;28;20112;-81
2023/07/02 12:36:55;;;;;;;4.82;3.80;;;;;;;;;;4992190;28;20049;-81
2023/07/02 12:39:21;;;;;;;4.50;3.28;;;;;;;;;;4993693;28;20034;-81
2023/07/02 12:41:47;;;;;;;3.97;3.60;;;;;;;;;;4992162;28;20105;-82
2023/07/02 12:44:13;;;;;;;5.00;3.88;;;;;;;;;;4993892;28;20539;-82
2023/07/02 12:46:39;;;;;;;7.75;5.90;;;;;;;;;;4993325;28;20054;-80
2023/07/02 12:49:05;;;;;;;4.78;4.32;;;;;;;;;;4993416;28;20527;-81
2023/07/02 12:51:31;;;;;;;4.63;4.22;;;;;;;;;;4993251;28;20281;-81
2023/07/02 12:53:57;;;;;;;7.03;4.32;;;;;;;;;;4993436;28;20124;-82
2023/07/02 12:56:23;;;;;;;4.05;3.75;;;;;;;;;;4993424;28;20116;-82
2023/07/02 12:58:51;;;;;;;4.53;4.13;;;;;;;;;;4993151;28;20034;-81
2023/07/02 13:01:17;;;;;;;4.63;4.22;;;;;;;;;;4993383;28;20042;-80
2023/07/02 13:03:47;;;;;;;5.20;4.63;;;;;;;;;;4993259;28;20413;-81
2023/07/02 13:06:16;;;;;;;4.13;3.75;;;;;;;;;;4991743;28;20038;-82
2023/07/02 13:08:42;;;;;;;7.53;3.50;;;;;;;;;;4975904;28;20775;-81
2023/07/02 13:11:08;;;;;;;4.20;3.80;;;;;;;;;;4992995;28;20364;-81
2023/07/02 13:13:36;;;;;;;4.75;3.53;;;;;;;;;;4992571;28;20030;-81
2023/07/02 13:16:02;;;;;;;5.30;3.80;;;;;;;;;;4992324;28;20034;-82
2023/07/02 13:18:28;;;;;;;5.22;3.80;;;;;;;;;;4993031;28;20513;-81
2023/07/02 13:20:55;;;;;;;4.32;4.03;;;;;;;;;;4992490;28;20039;-81
2023/07/02 13:23:20;;;;;;;7.20;4.20;;;;;;;;;;4992857;28;20041;-83
2023/07/02 13:25:47;;;;;;;4.95;3.95;;;;;;;;;;4991587;28;20133;-82
2023/07/02 13:28:13;;;;;;;5.18;4.40;;;;;;;;;;4994454;28;20053;-83
2023/07/02 13:30:39;;;;;;;4.35;3.88;;;;;;;;;;4959702;28;20465;-82
2023/07/02 13:33:05;;;;;;;5.47;4.60;;;;;;;;;;4991654;28;20069;-83
2023/07/02 13:35:31;;;;;;;11.88;4.88;;;;;;;;;;4991914;28;20065;-83
2023/07/02 13:37:59;;;;;;;4.53;4.15;;;;;;;;;;4993450;28;20038;-82
2023/07/02 13:40:25;;;;;;;6.00;4.15;;;;;;;;;;4976053;28;20043;-83
2023/07/02 13:42:51;;;;;;;8.23;4.60;;;;;;;;;;4992743;28;20034;-82
2023/07/02 13:45:17;;;;;;;3.50;3.20;;;;;;;;;;4993145;28;20034;-82
2023/07/02 13:47:45;;;;;;;7.57;3.80;;;;;;;;;;4993159;28;20057;-82
2023/07/02 13:50:11;;;;;;;8.63;4.05;;;;;;;;;;4993738;28;20591;-83
2023/07/02 13:52:37;;;;;;;5.75;4.18;;;;;;;;;;4993597;28;20038;-82
2023/07/02 13:55:03;;;;;;;5.35;4.07;;;;;;;;;;4993592;28;20045;-83
2023/07/02 13:57:30;;;;;;;5.68;4.25;;;;;;;;;;4993788;28;20097;-82
2023/07/02 13:59:56;;;;;;;4.70;4.20;;;;;;;;;;4999619;28;20045;-80
2023/07/02 14:02:23;;;;;;;4.45;4.07;;;;;;;;;;5005157;28;20034;-82
2023/07/02 14:04:49;;;;;;;4.55;4.00;;;;;;;;;;5004894;28;20038;-84
2023/07/02 14:07:15;;;;;;;5.70;4.63;;;;;;;;;;4982829;28;20098;-84
2023/07/02 14:09:41;;;;;;;5.10;4.60;;;;;;;;;;4997816;28;20061;-84
2023/07/02 14:12:07;;;;;;;7.45;4.65;;;;;;;;;;4996288;28;20056;-84
2023/07/02 14:14:33;;;;;;;8.93;4.90;;;;;;;;;;5005611;28;20041;-84
2023/07/02 14:16:59;;;;;;;5.45;4.90;;;;;;;;;;4997614;28;20102;-83
2023/07/02 14:19:25;;;;;;;5.95;5.05;;;;;;;;;;4997181;28;20066;-83
2023/07/02 14:21:50;;;;;;;11.70;5.07;;;;;;;;;;4990318;28;20049;-81
2023/07/02 14:24:16;;;;;;;5.82;5.00;;;;;;;;;;4990184;28;20030;-77
2023/07/02 14:26:44;;;;;;;4.80;4.35;;;;;;;;;;4990863;28;20073;-79
2023/07/02 14:29:10;;;;;;;4.13;3.80;;;;;;;;;;4991264;28;20436;-80
2023/07/02 14:31:36;;;;;;;6.97;4.68;;;;;;;;;;4990929;28;20065;-80
2023/07/02 14:34:02;;;;;;;7.32;5.05;;;;;;;;;;4973509;28;20540;-80
2023/07/02 14:36:28;;;;;;;10.35;5.03;;;;;;;;;;4989864;28;20045;-80
2023/07/02 14:38:54;;;;;;;4.10;3.72;;;;;;;;;;4989831;28;20034;-80
2023/07/02 14:41:20;;;;;;;6.30;5.78;;;;;;;;;;4991019;28;20034;-79